Main page
METAR-TAF:

METAR-TAF

Airports :

Memanbetsu Airport

Memanbetsu, Japan

latitude: 43-53N, longitude: 144-10E, elevation: 33 m

Current weather observation

The report was made 1 hour and 1 minutes ago, at 01:00 UTC
Wind 4 kt from the West/Southwest, varying between South/Southwest and West/Northwest
Temperature 1°C
Humidity 69%
Pressure 1026 hPa
Visibility 10 km or more
no clouds below 1500 m and no cumulonimbus

METAR: RJCM 060100Z 24004KT 210V290 CAVOK 01/M04 Q1026

Time: 11:01 (02:01 UTC)

Forecast

The report was made 2 hours and 53 minutes ago, at 23:08 UTC
Forecast valid from 06 at 00 UTC to 07 at 06 UTC
Wind 5 kt from the South/Southwest
Visibility 10 km or more
Few clouds at a height of 3000 ft
Becoming
from 07 at 00 UTC to 07 at 03 UTC
Wind 12 kt from the North/Northeast

TAF: RJCM 052308Z 0600/0706 20005KT 9999 FEW030 BECMG 0700/0703 03012KT

Weather observations and forecasts of more than 4000 airports (METAR and TAF reports).

The available stations are represented by yellow and red dots on the map.

Hover mouse over dot to see the name of the station.

Then click to see weather observations and forecasts.

To change the map : click on the green buttons with a black cross to zoom in, on the green button with a dash to zoom out, or on the green arrows for adjacent maps.


METAR-TAF: